createdAt,value
2019-03-06T00:01:44.495Z,2.42
2019-03-06T00:04:11.541Z,2.15
2019-03-06T00:06:38.486Z,2.60
2019-03-06T00:09:06.490Z,2.52
2019-03-06T00:11:33.398Z,3.30
2019-03-06T00:14:00.341Z,2.42
2019-03-06T00:16:27.595Z,2.52
2019-03-06T00:18:54.540Z,3.60
2019-03-06T00:21:21.482Z,2.83
2019-03-06T00:23:48.427Z,3.25
2019-03-06T00:26:15.371Z,3.60
2019-03-06T00:28:42.417Z,2.70
2019-03-06T00:31:09.361Z,4.53
2019-03-06T00:33:36.409Z,2.50
2019-03-06T00:36:05.606Z,3.37
2019-03-06T00:38:32.550Z,2.40
2019-03-06T00:41:10.148Z,2.80
2019-03-06T00:43:37.088Z,2.40
2019-03-06T00:46:04.035Z,2.70
2019-03-06T00:48:31.182Z,3.37
2019-03-06T00:50:58.125Z,2.42
2019-03-06T00:53:25.070Z,2.50
2019-03-06T00:55:52.116Z,2.50
2019-03-06T00:58:19.062Z,2.90
2019-03-06T01:00:46.006Z,3.10
2019-03-06T01:03:13.155Z,3.40
2019-03-06T01:05:40.098Z,3.52
2019-03-06T01:08:07.043Z,3.42
2019-03-06T01:10:33.987Z,2.87
2019-03-06T01:13:02.196Z,2.33
2019-03-06T01:15:29.106Z,2.50
2019-03-06T01:17:56.049Z,2.50
2019-03-06T01:20:23.097Z,2.80
2019-03-06T01:22:50.039Z,2.20
2019-03-06T01:25:20.978Z,2.40
2019-03-06T01:27:48.333Z,2.72
2019-03-06T01:30:26.745Z,2.25
2019-03-06T01:32:58.261Z,2.40
2019-03-06T01:35:36.404Z,2.40
2019-03-06T01:38:05.498Z,2.70
2019-03-06T01:40:43.400Z,3.80
2019-03-06T01:43:18.145Z,3.77
2019-03-06T01:45:44.965Z,2.83
2019-03-06T01:48:12.048Z,2.80
2019-03-06T01:50:38.869Z,2.80
2019-03-06T01:53:05.693Z,3.00
2019-03-06T01:55:32.483Z,3.52
2019-03-06T01:57:59.313Z,3.70
2019-03-06T02:00:26.344Z,4.00
2019-03-06T02:02:53.437Z,3.42
2019-03-06T02:05:21.213Z,3.80
2019-03-06T02:07:47.981Z,3.90
2019-03-06T02:10:15.076Z,4.30
2019-03-06T02:12:41.907Z,4.90
2019-03-06T02:15:14.534Z,4.60
2019-03-06T02:17:41.312Z,6.37
2019-03-06T02:20:11.180Z,6.30
2019-03-06T02:22:38.001Z,6.87
2019-03-06T02:25:04.889Z,6.85
2019-03-06T02:27:31.705Z,6.50
2019-03-06T02:29:58.841Z,7.20
2019-03-06T02:32:25.632Z,7.10
2019-03-06T02:34:52.452Z,8.03
2019-03-06T04:02:13.400Z,9.73
2019-03-06T04:04:40.377Z,10.18
2019-03-06T04:07:07.153Z,10.05
2019-03-06T04:09:33.980Z,9.60
2019-03-06T04:12:00.816Z,9.83
2019-03-06T04:14:27.709Z,11.08
2019-03-06T04:16:54.761Z,11.25
2019-03-06T04:19:21.803Z,10.90
2019-03-06T04:21:48.746Z,11.35
2019-03-06T04:24:15.695Z,11.57
2019-03-06T04:26:42.840Z,11.73
2019-03-06T04:29:09.886Z,11.88
2019-03-06T04:31:36.831Z,11.88
2019-03-06T04:34:03.775Z,11.18
2019-03-06T04:36:30.661Z,11.63
2019-03-06T04:38:57.665Z,10.75
2019-03-06T04:41:24.915Z,9.48
2019-03-06T04:43:51.859Z,10.00
2019-03-06T04:46:18.905Z,10.20
2019-03-06T04:48:45.850Z,9.70
2019-03-06T04:51:13.218Z,9.78
2019-03-06T04:53:40.249Z,9.70
2019-03-06T06:56:22.540Z,4.10
2019-03-06T06:58:59.178Z,3.85
2019-03-06T07:01:49.909Z,3.65
2019-03-06T07:04:25.240Z,4.05
2019-03-06T07:06:57.013Z,4.15
2019-03-06T07:09:42.119Z,3.72
2019-03-06T07:12:13.465Z,4.20
2019-03-06T07:14:58.645Z,3.25
2019-03-06T07:17:30.593Z,3.35
2019-03-06T07:20:02.408Z,3.77
2019-03-06T07:22:31.057Z,3.40
2019-03-06T07:24:59.690Z,2.98
2019-03-06T07:27:31.746Z,2.85
2019-03-06T07:30:16.709Z,2.58
2019-03-06T07:32:45.742Z,2.50
2019-03-06T07:35:59.609Z,2.95
2019-03-06T07:38:26.435Z,3.60
2019-03-06T07:40:57.885Z,2.72
2019-03-06T07:43:26.545Z,2.95
2019-03-06T07:45:58.216Z,4.17
2019-03-06T07:48:30.197Z,2.95
2019-03-06T07:50:58.834Z,5.17
2019-03-06T07:53:49.821Z,2.70
2019-03-06T07:56:30.731Z,3.10
2019-03-06T07:58:58.874Z,4.50
2019-03-06T08:01:28.005Z,2.70
2019-03-06T08:04:06.278Z,2.30
2019-03-06T08:06:33.113Z,3.15
2019-03-06T08:08:59.901Z,2.67
2019-03-06T08:11:31.357Z,2.58
2019-03-06T08:14:02.578Z,2.30
2019-03-06T08:16:31.533Z,2.52
2019-03-06T08:19:05.966Z,2.27
2019-03-06T08:21:37.403Z,3.65
2019-03-06T08:24:11.944Z,2.33
2019-03-06T08:26:38.977Z,2.20
2019-03-06T08:29:05.773Z,2.30
2019-03-06T08:31:34.405Z,2.50
2019-03-06T08:34:01.222Z,1.77
2019-03-06T08:36:28.009Z,2.52
2019-03-06T08:38:54.861Z,1.80
2019-03-06T08:41:33.951Z,1.97
2019-03-06T08:44:00.786Z,1.92
2019-03-06T08:46:41.603Z,2.22
2019-03-06T08:49:22.186Z,2.22
2019-03-06T08:51:50.805Z,1.90
2019-03-06T08:54:22.296Z,2.50
2019-03-06T08:57:09.152Z,2.67
2019-03-06T08:59:40.290Z,3.00
2019-03-06T09:02:26.273Z,2.50
2019-03-06T09:04:54.874Z,3.00
2019-03-06T09:07:32.372Z,1.90
2019-03-06T09:10:03.578Z,1.80
2019-03-06T09:12:32.506Z,2.08
2019-03-06T09:15:13.104Z,1.80
2019-03-06T09:17:50.906Z,3.20
2019-03-06T09:20:34.990Z,2.30
2019-03-06T09:22:58.633Z,1.60
2019-03-06T09:25:42.345Z,1.70
2019-03-06T09:28:13.555Z,2.30
2019-03-06T09:30:42.206Z,1.70
2019-03-06T09:33:11.012Z,2.42
2019-03-06T09:35:39.662Z,4.50
2019-03-06T09:38:24.870Z,1.70
2019-03-06T09:40:59.379Z,1.50
2019-03-06T09:43:31.028Z,2.05
2019-03-06T09:46:02.446Z,3.20
2019-03-06T09:48:33.631Z,1.42
2019-03-06T09:51:08.200Z,1.95
2019-03-06T09:53:39.870Z,2.10
2019-03-06T09:56:11.306Z,2.10
2019-03-06T09:58:42.719Z,1.45
2019-03-06T10:01:11.366Z,4.33
2019-03-06T10:03:42.796Z,1.62
2019-03-06T10:06:11.782Z,2.02
2019-03-06T10:08:40.401Z,1.80
2019-03-06T10:11:17.257Z,1.60
2019-03-06T10:13:47.805Z,2.30
2019-03-06T10:16:19.411Z,1.65
2019-03-06T10:18:54.237Z,2.00
2019-03-06T10:21:21.063Z,2.00
2019-03-06T10:23:49.038Z,1.72
2019-03-06T10:26:16.575Z,2.40
2019-03-06T10:28:43.374Z,1.77
2019-03-06T10:31:10.423Z,1.60
2019-03-06T10:33:37.211Z,2.55
2019-03-06T10:36:04.447Z,2.00
2019-03-06T10:38:31.282Z,3.30
2019-03-06T10:40:58.095Z,3.40
2019-03-06T10:43:24.978Z,2.20
2019-03-06T10:45:51.792Z,2.50
2019-03-06T10:48:18.826Z,3.65
2019-03-06T10:50:45.656Z,1.72
2019-03-06T10:53:12.503Z,2.15
2019-03-06T10:55:39.318Z,2.20
2019-03-06T10:58:06.158Z,1.60
2019-03-06T11:00:37.403Z,1.70
2019-03-06T11:03:04.699Z,2.40
2019-03-06T11:05:33.434Z,1.72
2019-03-06T11:08:00.864Z,3.30
2019-03-06T11:10:29.877Z,1.90
2019-03-06T11:12:57.611Z,5.30
2019-03-06T11:15:25.050Z,2.77
2019-03-06T11:17:52.157Z,1.70
2019-03-06T11:20:25.790Z,2.50
2019-03-06T11:22:54.627Z,1.50
2019-03-06T11:25:24.066Z,1.82
2019-03-06T11:27:51.450Z,1.42
2019-03-06T11:30:21.902Z,1.30
2019-03-06T11:32:54.424Z,1.30
2019-03-06T11:35:20.666Z,1.65
2019-03-06T11:37:47.562Z,3.02
2019-03-06T11:40:16.098Z,1.40
2019-03-06T11:42:43.106Z,1.30
2019-03-06T11:45:13.554Z,2.20
2019-03-06T11:47:40.377Z,3.80
2019-03-06T11:50:09.782Z,2.10
2019-03-06T11:52:36.630Z,2.37
2019-03-06T11:55:06.637Z,2.35
2019-03-06T11:57:35.187Z,1.40
2019-03-06T12:00:10.420Z,1.52
2019-03-06T12:02:37.761Z,1.60
2019-03-06T12:05:05.771Z,3.02
2019-03-06T12:07:32.682Z,1.50
2019-03-06T12:09:59.535Z,2.20
2019-03-06T12:12:26.430Z,1.80
2019-03-06T12:14:53.458Z,1.60
2019-03-06T12:17:20.258Z,1.50
2019-03-06T12:19:47.067Z,1.45
2019-03-06T12:22:13.906Z,1.40
2019-03-06T12:24:40.700Z,1.80
2019-03-06T12:27:07.630Z,2.67
2019-03-06T12:29:34.420Z,1.60
2019-03-06T12:32:01.553Z,4.92
2019-03-06T12:34:28.342Z,3.57
2019-03-06T12:36:55.169Z,2.58
2019-03-06T12:39:22.006Z,3.27
2019-03-06T12:41:48.800Z,1.87
2019-03-06T12:44:15.654Z,2.45
2019-03-06T12:46:42.741Z,1.92
2019-03-06T12:49:09.930Z,2.90
2019-03-06T12:51:37.349Z,1.62
2019-03-06T12:54:04.597Z,1.98
2019-03-06T12:56:31.542Z,2.15
2019-03-06T12:58:58.588Z,1.70
2019-03-06T13:01:25.840Z,1.70
2019-03-06T13:03:52.787Z,2.08
2019-03-06T13:08:50.666Z,5.97
2019-03-06T13:11:17.577Z,4.50
2019-03-06T13:13:44.677Z,1.65
2019-03-06T13:16:11.524Z,1.60
2019-03-06T13:18:38.424Z,1.90
2019-03-06T13:21:06.432Z,4.00
2019-03-06T13:23:33.572Z,1.70
2019-03-06T13:26:09.736Z,4.50
2019-03-06T13:28:29.031Z,1.62
2019-03-06T13:30:55.828Z,1.90
2019-03-06T13:33:30.211Z,1.95
2019-03-06T13:35:57.018Z,1.70
2019-03-06T13:38:24.106Z,1.55
2019-03-06T13:40:50.941Z,2.30
2019-03-06T13:43:17.728Z,1.85
2019-03-06T13:45:44.598Z,2.90
2019-03-06T13:48:11.930Z,2.80
2019-03-06T13:50:38.831Z,2.22
2019-03-06T13:53:05.653Z,1.35
2019-03-06T13:55:33.679Z,1.30
2019-03-06T13:58:00.707Z,1.40
2019-03-06T14:00:27.519Z,2.50
2019-03-06T14:02:54.346Z,1.60
2019-03-06T14:05:22.349Z,3.25
2019-03-06T14:07:55.912Z,1.70
2019-03-06T14:10:20.029Z,1.65
2019-03-06T14:12:46.867Z,1.50
2019-03-06T14:15:14.929Z,2.20
2019-03-06T14:17:42.061Z,1.97
2019-03-06T14:20:11.301Z,1.60
2019-03-06T14:22:38.639Z,1.70
2019-03-06T14:25:08.315Z,1.80
2019-03-06T14:27:35.536Z,1.80
2019-03-06T14:30:12.518Z,2.10
2019-03-06T14:32:41.634Z,1.62
2019-03-06T14:35:08.861Z,1.77
2019-03-06T14:37:36.015Z,1.72
2019-03-06T14:40:14.449Z,1.50
2019-03-06T14:43:04.499Z,3.85
2019-03-06T14:45:24.756Z,4.60
2019-03-06T14:47:52.779Z,2.05
2019-03-06T14:50:24.165Z,2.20
2019-03-06T14:52:51.469Z,1.50
2019-03-06T14:55:19.018Z,3.10
2019-03-06T14:57:45.983Z,1.47
2019-03-06T15:00:17.784Z,2.10
2019-03-06T15:02:44.932Z,3.30
2019-03-06T15:05:12.188Z,2.50
2019-03-06T15:07:38.946Z,2.50
2019-03-06T15:10:09.287Z,2.40
2019-03-06T15:12:36.074Z,1.80
2019-03-06T15:15:04.809Z,1.80
2019-03-06T15:17:31.602Z,3.00
2019-03-06T15:19:58.438Z,3.20
2019-03-06T15:22:25.239Z,2.05
2019-03-06T15:24:52.066Z,1.70
2019-03-06T15:27:19.088Z,2.00
2019-03-06T15:29:46.489Z,1.50
2019-03-06T15:32:15.226Z,2.90
2019-03-06T15:34:42.026Z,1.77
2019-03-06T15:37:08.950Z,1.70
2019-03-06T15:39:42.758Z,3.85
2019-03-06T15:42:05.110Z,3.30
2019-03-06T15:44:32.413Z,1.87
2019-03-06T15:46:59.214Z,1.83
2019-03-06T15:49:26.047Z,2.60
2019-03-06T15:51:52.835Z,2.60
2019-03-06T15:54:19.693Z,3.27
2019-03-06T15:56:46.579Z,3.40
2019-03-06T15:59:15.217Z,1.90
2019-03-06T16:01:42.049Z,3.90
2019-03-06T16:04:08.846Z,2.50
2019-03-06T16:06:35.675Z,2.10
2019-03-06T16:09:05.577Z,2.20
2019-03-06T16:11:32.710Z,1.98
2019-03-06T16:13:59.498Z,2.50
2019-03-06T16:16:26.634Z,3.67
2019-03-06T16:18:53.424Z,3.72
2019-03-06T16:21:20.261Z,3.02
2019-03-06T16:23:47.045Z,2.67
2019-03-06T16:26:13.887Z,2.45
2019-03-06T16:28:40.685Z,3.33
2019-03-06T16:31:07.625Z,2.02
2019-03-06T16:33:34.754Z,2.80
2019-03-06T16:36:01.542Z,4.28
2019-03-06T16:38:28.369Z,2.50
2019-03-06T16:40:55.297Z,2.30
2019-03-06T16:43:22.094Z,2.70
2019-03-06T16:45:49.086Z,2.98
2019-03-06T16:48:15.891Z,2.40
2019-03-06T16:50:43.627Z,3.67
2019-03-06T16:53:11.114Z,3.10
2019-03-06T16:55:39.844Z,3.98
2019-03-06T16:58:06.559Z,3.27
2019-03-06T17:00:36.493Z,2.83
2019-03-06T17:03:04.634Z,4.95
2019-03-06T17:05:31.878Z,3.52
2019-03-06T17:07:59.022Z,2.90
2019-03-06T17:10:27.423Z,3.70
2019-03-06T17:12:54.963Z,3.37
2019-03-06T17:15:22.866Z,6.05
2019-03-06T17:17:49.799Z,4.27
2019-03-06T17:20:22.220Z,7.70
2019-03-06T17:22:49.347Z,4.80
2019-03-06T17:25:16.383Z,4.85
2019-03-06T17:27:44.045Z,4.10
2019-03-06T17:30:17.370Z,6.50
2019-03-06T17:32:59.310Z,4.62
2019-03-06T17:35:27.007Z,7.08
2019-03-06T17:37:53.934Z,7.53
2019-03-06T17:40:20.731Z,7.47
2019-03-06T17:42:47.571Z,5.10
2019-03-06T17:45:15.681Z,5.92
2019-03-06T17:47:42.610Z,5.92
2019-03-06T17:50:11.901Z,5.67
2019-03-06T17:52:38.959Z,7.33
2019-03-06T17:55:07.867Z,5.12
2019-03-06T17:57:34.915Z,5.08
2019-03-06T18:00:02.850Z,6.50
2019-03-06T18:02:29.621Z,6.15
2019-03-06T18:04:56.458Z,5.60
2019-03-06T18:07:23.658Z,7.42
2019-03-06T18:09:50.586Z,6.20
2019-03-06T18:12:17.522Z,5.97
2019-03-06T18:14:44.324Z,5.62
2019-03-06T18:17:11.164Z,6.10
2019-03-06T18:19:38.062Z,6.10
2019-03-06T18:22:05.195Z,6.40
2019-03-06T18:24:31.996Z,6.20
2019-03-06T18:26:59.046Z,6.10
2019-03-06T18:29:25.875Z,6.50
2019-03-06T18:31:52.753Z,6.30
2019-03-06T18:34:19.551Z,5.80
2019-03-06T18:36:46.378Z,6.58
2019-03-06T18:39:15.121Z,8.15
2019-03-06T18:41:42.888Z,6.50
2019-03-06T18:44:10.065Z,7.50
2019-03-06T18:46:36.900Z,9.07
2019-03-06T18:49:03.735Z,6.50
2019-03-06T18:51:30.585Z,6.22
2019-03-06T18:53:57.373Z,7.00
2019-03-06T18:56:24.206Z,6.58
2019-03-06T18:58:51.042Z,6.78
2019-03-06T19:01:17.939Z,8.15
2019-03-06T19:03:44.976Z,8.03
2019-03-06T19:06:11.897Z,7.10
2019-03-06T19:08:38.762Z,7.12
2019-03-06T19:11:05.698Z,7.17
2019-03-06T19:13:32.537Z,6.17
2019-03-06T19:15:59.379Z,5.90
2019-03-06T19:18:26.173Z,6.58
2019-03-06T19:20:53.313Z,6.30
2019-03-06T19:23:22.009Z,6.90
2019-03-06T19:25:48.852Z,6.28
2019-03-06T19:28:15.702Z,6.10
2019-03-06T19:30:42.627Z,5.80
2019-03-06T19:33:09.490Z,6.28
2019-03-06T19:35:36.328Z,5.58
2019-03-06T19:38:03.423Z,6.55
2019-03-06T19:40:30.249Z,7.35
2019-03-06T19:42:57.046Z,5.87
2019-03-06T19:45:24.696Z,8.28
2019-03-06T19:48:58.342Z,6.15
2019-03-06T19:51:25.170Z,5.50
2019-03-06T19:53:53.459Z,6.50
2019-03-06T19:56:20.396Z,5.80
2019-03-06T19:58:47.594Z,6.08
2019-03-06T20:01:15.738Z,6.12
2019-03-06T20:03:43.622Z,5.50
2019-03-06T20:06:10.487Z,6.42
2019-03-06T20:08:37.290Z,6.20
2019-03-06T20:11:04.122Z,11.73
2019-03-06T20:13:30.960Z,6.35
2019-03-06T20:16:00.191Z,6.50
2019-03-06T20:18:26.997Z,6.10
2019-03-06T20:20:53.818Z,6.40
2019-03-06T20:23:20.686Z,7.58
2019-03-06T20:25:47.960Z,7.33
2019-03-06T20:28:14.763Z,7.10
2019-03-06T20:30:41.625Z,7.47
2019-03-06T20:33:08.703Z,8.20
2019-03-06T20:35:35.809Z,8.13
2019-03-06T20:38:02.642Z,8.13
2019-03-06T20:40:29.630Z,7.55
2019-03-06T20:42:56.466Z,10.68
2019-03-06T20:45:23.269Z,12.30
2019-03-06T20:47:50.099Z,10.60
2019-03-06T20:50:18.039Z,9.08
2019-03-06T20:52:44.851Z,8.20
2019-03-06T20:55:12.762Z,8.40
2019-03-06T20:57:39.774Z,8.25
2019-03-06T21:00:22.117Z,8.75
2019-03-06T21:02:48.949Z,9.40
2019-03-06T21:05:17.596Z,10.18
2019-03-06T21:07:45.664Z,7.30
2019-03-06T21:10:16.219Z,7.90
2019-03-06T21:12:43.936Z,7.05
2019-03-06T21:15:16.690Z,7.20
2019-03-06T21:17:43.522Z,6.95
2019-03-06T21:20:12.526Z,8.00
2019-03-06T21:22:39.633Z,7.30
2019-03-06T21:25:09.362Z,7.33
2019-03-06T21:27:36.208Z,6.53
2019-03-06T21:30:06.411Z,6.12
2019-03-06T21:32:33.253Z,8.75
2019-03-06T21:35:00.299Z,5.67
2019-03-06T21:37:27.226Z,5.90
2019-03-06T21:39:54.058Z,6.57
2019-03-06T21:42:20.858Z,8.88
2019-03-06T21:44:47.702Z,6.28
2019-03-06T21:47:14.505Z,6.97
2019-03-06T21:49:41.701Z,6.70
2019-03-06T21:52:08.500Z,6.08
2019-03-06T21:54:35.338Z,7.73
2019-03-06T21:57:02.276Z,9.38
2019-03-06T21:59:29.190Z,8.55
2019-03-06T22:01:56.056Z,9.17
2019-03-06T22:04:22.996Z,6.33
2019-03-06T22:06:49.783Z,7.90
2019-03-06T22:09:17.514Z,6.30
2019-03-06T22:11:44.374Z,5.62
2019-03-06T22:14:11.167Z,5.33
2019-03-06T22:16:38.023Z,5.80
2019-03-06T22:19:04.855Z,5.00
2019-03-06T22:21:31.650Z,6.40
2019-03-06T22:23:58.481Z,5.20
2019-03-06T22:26:25.524Z,5.37
2019-03-06T22:28:52.326Z,6.55
2019-03-06T22:31:19.180Z,4.40
2019-03-06T22:33:46.876Z,3.83
2019-03-06T22:36:13.681Z,4.67
2019-03-06T22:38:40.512Z,3.52
2019-03-06T22:41:07.349Z,7.17
2019-03-06T22:43:34.149Z,2.80
2019-03-06T22:46:01.084Z,4.23
2019-03-06T22:48:27.950Z,4.72
2019-03-06T22:50:54.761Z,3.12
2019-03-06T22:53:21.594Z,2.87
2019-03-06T22:55:48.434Z,2.70
2019-03-06T22:58:15.230Z,2.62
2019-03-06T23:00:47.373Z,2.70
2019-03-06T23:03:15.106Z,4.58
2019-03-06T23:05:41.995Z,2.60
2019-03-06T23:08:08.838Z,3.02
2019-03-06T23:10:35.646Z,4.00
2019-03-06T23:13:02.582Z,3.45
2019-03-06T23:15:29.457Z,3.27
2019-03-06T23:17:56.558Z,3.13
2019-03-06T23:20:23.390Z,3.47
2019-03-06T23:22:50.190Z,3.50
2019-03-06T23:25:18.222Z,4.30
2019-03-06T23:27:45.361Z,3.40
2019-03-06T23:30:13.637Z,2.92
2019-03-06T23:32:40.435Z,2.67
2019-03-06T23:35:07.714Z,3.93
2019-03-06T23:37:34.510Z,6.30
2019-03-06T23:40:01.346Z,3.65
2019-03-06T23:42:28.170Z,4.08
2019-03-06T23:44:54.986Z,3.70
2019-03-06T23:47:21.814Z,3.37
2019-03-06T23:49:48.618Z,3.67
2019-03-06T23:52:17.563Z,2.43
2019-03-06T23:54:44.394Z,3.98
2019-03-06T23:57:11.260Z,2.85
2019-03-06T23:59:38.194Z,2.50
